sensor_id;sensor_type;location;lat;lon;timestamp;temperature;humidity
292;DHT22;23311;48.776;9.162;2023-09-19T00:00:39;17.80;95.50
292;DHT22;23311;48.776;9.162;2023-09-19T00:03:09;17.80;95.50
292;DHT22;23311;48.776;9.162;2023-09-19T00:05:39;17.80;95.50
292;DHT22;23311;48.776;9.162;2023-09-19T00:08:12;17.80;95.50
292;DHT22;23311;48.776;9.162;2023-09-19T00:10:43;17.80;95.50
292;DHT22;23311;48.776;9.162;2023-09-19T00:13:11;17.80;95.50
292;DHT22;23311;48.776;9.162;2023-09-19T00:15:43;17.80;95.50
292;DHT22;23311;48.776;9.162;2023-09-19T00:18:16;17.70;95.50
292;DHT22;23311;48.776;9.162;2023-09-19T00:20:45;17.70;95.50
292;DHT22;23311;48.776;9.162;2023-09-19T00:23:14;17.70;95.50
292;DHT22;23311;48.776;9.162;2023-09-19T00:25:44;17.70;95.50
292;DHT22;23311;48.776;9.162;2023-09-19T00:28:13;17.60;95.50
292;DHT22;23311;48.776;9.162;2023-09-19T00:30:43;17.60;95.50
292;DHT22;23311;48.776;9.162;2023-09-19T00:33:12;17.60;95.50
292;DHT22;23311;48.776;9.162;2023-09-19T00:35:47;17.60;95.50
292;DHT22;23311;48.776;9.162;2023-09-19T00:38:16;17.60;95.50
292;DHT22;23311;48.776;9.162;2023-09-19T00:40:48;17.50;95.50
292;DHT22;23311;48.776;9.162;2023-09-19T00:43:18;17.50;95.50
292;DHT22;23311;48.776;9.162;2023-09-19T00:45:48;17.50;95.50
292;DHT22;23311;48.776;9.162;2023-09-19T00:48:19;17.50;95.50
292;DHT22;23311;48.776;9.162;2023-09-19T00:50:49;17.50;95.50
292;DHT22;23311;48.776;9.162;2023-09-19T00:53:20;17.50;95.50
292;DHT22;23311;48.776;9.162;2023-09-19T00:55:51;17.40;95.50
292;DHT22;23311;48.776;9.162;2023-09-19T00:58:19;17.40;95.50
292;DHT22;23311;48.776;9.162;2023-09-19T01:00:49;17.40;95.50
292;DHT22;23311;48.776;9.162;2023-09-19T01:03:18;17.40;95.50
292;DHT22;23311;48.776;9.162;2023-09-19T01:05:46;17.30;95.50
292;DHT22;23311;48.776;9.162;2023-09-19T01:08:15;17.40;95.50
292;DHT22;23311;48.776;9.162;2023-09-19T01:10:49;17.30;95.50
292;DHT22;23311;48.776;9.162;2023-09-19T01:13:26;17.30;95.50
292;DHT22;23311;48.776;9.162;2023-09-19T01:16:03;17.30;95.50
292;DHT22;23311;48.776;9.162;2023-09-19T01:18:40;17.30;95.50
292;DHT22;23311;48.776;9.162;2023-09-19T01:21:15;17.30;95.50
292;DHT22;23311;48.776;9.162;2023-09-19T01:24:10;17.30;95.50
292;DHT22;23311;48.776;9.162;2023-09-19T01:27:06;17.30;95.50
292;DHT22;23311;48.776;9.162;2023-09-19T01:29:44;17.30;95.50
292;DHT22;23311;48.776;9.162;2023-09-19T01:32:17;17.40;95.50
292;DHT22;23311;48.776;9.162;2023-09-19T01:34:50;17.40;95.50
292;DHT22;23311;48.776;9.162;2023-09-19T01:37:20;17.40;95.50
292;DHT22;23311;48.776;9.162;2023-09-19T01:39:55;17.40;95.50
292;DHT22;23311;48.776;9.162;2023-09-19T01:42:31;17.40;95.50
292;DHT22;23311;48.776;9.162;2023-09-19T01:45:08;17.50;95.50
292;DHT22;23311;48.776;9.162;2023-09-19T01:47:52;17.50;95.50
292;DHT22;23311;48.776;9.162;2023-09-19T01:50:29;17.60;95.50
292;DHT22;23311;48.776;9.162;2023-09-19T01:53:04;17.60;95.50
292;DHT22;23311;48.776;9.162;2023-09-19T01:55:37;17.60;95.50
292;DHT22;23311;48.776;9.162;2023-09-19T01:58:16;17.60;95.50
292;DHT22;23311;48.776;9.162;2023-09-19T02:00:48;17.60;95.50
292;DHT22;23311;48.776;9.162;2023-09-19T02:03:21;17.60;95.50
292;DHT22;23311;48.776;9.162;2023-09-19T02:05:50;17.50;95.50
292;DHT22;23311;48.776;9.162;2023-09-19T02:08:22;17.50;95.50
292;DHT22;23311;48.776;9.162;2023-09-19T02:10:51;17.50;95.50
292;DHT22;23311;48.776;9.162;2023-09-19T02:13:21;17.40;95.50
292;DHT22;23311;48.776;9.162;2023-09-19T02:15:51;17.40;95.50
292;DHT22;23311;48.776;9.162;2023-09-19T02:18:20;17.30;95.50
292;DHT22;23311;48.776;9.162;2023-09-19T02:20:48;17.20;95.50
292;DHT22;23311;48.776;9.162;2023-09-19T02:23:18;17.20;95.50
292;DHT22;23311;48.776;9.162;2023-09-19T02:25:52;17.20;95.50
292;DHT22;23311;48.776;9.162;2023-09-19T02:28:20;17.10;95.50
292;DHT22;23311;48.776;9.162;2023-09-19T02:30:49;17.10;95.50
292;DHT22;23311;48.776;9.162;2023-09-19T02:33:19;17.00;95.50
292;DHT22;23311;48.776;9.162;2023-09-19T02:35:47;16.90;95.50
292;DHT22;23311;48.776;9.162;2023-09-19T02:38:16;16.90;95.50
292;DHT22;23311;48.776;9.162;2023-09-19T02:40:51;16.80;95.50
292;DHT22;23311;48.776;9.162;2023-09-19T02:43:20;16.70;95.50
292;DHT22;23311;48.776;9.162;2023-09-19T02:45:49;16.60;95.50
292;DHT22;23311;48.776;9.162;2023-09-19T02:48:17;16.60;95.50
292;DHT22;23311;48.776;9.162;2023-09-19T02:50:49;16.50;95.50
292;DHT22;23311;48.776;9.162;2023-09-19T02:53:18;16.50;95.50
292;DHT22;23311;48.776;9.162;2023-09-19T02:55:47;16.40;95.50
292;DHT22;23311;48.776;9.162;2023-09-19T02:58:15;16.40;95.50
292;DHT22;23311;48.776;9.162;2023-09-19T03:00:45;16.50;95.50
292;DHT22;23311;48.776;9.162;2023-09-19T03:03:14;16.60;95.50
292;DHT22;23311;48.776;9.162;2023-09-19T03:05:43;16.70;95.50
292;DHT22;23311;48.776;9.162;2023-09-19T03:08:15;16.80;95.50
292;DHT22;23311;48.776;9.162;2023-09-19T03:10:46;16.90;95.50
292;DHT22;23311;48.776;9.162;2023-09-19T03:13:14;17.00;95.50
292;DHT22;23311;48.776;9.162;2023-09-19T03:15:43;17.10;95.50
292;DHT22;23311;48.776;9.162;2023-09-19T03:18:13;17.10;95.50
292;DHT22;23311;48.776;9.162;2023-09-19T03:20:42;17.10;95.50
292;DHT22;23311;48.776;9.162;2023-09-19T03:23:10;17.20;95.50
292;DHT22;23311;48.776;9.162;2023-09-19T03:25:41;17.20;95.50
292;DHT22;23311;48.776;9.162;2023-09-19T03:28:09;17.10;95.50
292;DHT22;23311;48.776;9.162;2023-09-19T03:30:38;17.10;95.50
292;DHT22;23311;48.776;9.162;2023-09-19T03:33:06;17.10;95.50
292;DHT22;23311;48.776;9.162;2023-09-19T03:35:35;17.10;95.50
292;DHT22;23311;48.776;9.162;2023-09-19T03:38:03;17.20;95.50
292;DHT22;23311;48.776;9.162;2023-09-19T03:40:32;17.20;95.50
292;DHT22;23311;48.776;9.162;2023-09-19T03:43:02;17.20;95.50
292;DHT22;23311;48.776;9.162;2023-09-19T03:45:31;17.20;95.50
292;DHT22;23311;48.776;9.162;2023-09-19T03:47:59;17.20;95.50
292;DHT22;23311;48.776;9.162;2023-09-19T03:50:27;17.10;95.50
292;DHT22;23311;48.776;9.162;2023-09-19T03:52:56;17.10;95.50
292;DHT22;23311;48.776;9.162;2023-09-19T03:55:25;17.10;95.50
292;DHT22;23311;48.776;9.162;2023-09-19T03:57:53;17.10;95.50
292;DHT22;23311;48.776;9.162;2023-09-19T04:00:22;17.10;95.50
292;DHT22;23311;48.776;9.162;2023-09-19T04:02:53;17.20;95.50
292;DHT22;23311;48.776;9.162;2023-09-19T04:05:23;17.20;95.50
292;DHT22;23311;48.776;9.162;2023-09-19T04:07:51;17.20;95.50
292;DHT22;23311;48.776;9.162;2023-09-19T04:10:20;17.10;95.50
292;DHT22;23311;48.776;9.162;2023-09-19T04:12:52;17.10;95.50
292;DHT22;23311;48.776;9.162;2023-09-19T04:15:20;17.00;95.50
292;DHT22;23311;48.776;9.162;2023-09-19T04:17:51;17.00;95.50
292;DHT22;23311;48.776;9.162;2023-09-19T04:20:20;17.00;95.50
292;DHT22;23311;48.776;9.162;2023-09-19T04:22:49;17.10;95.50
292;DHT22;23311;48.776;9.162;2023-09-19T04:25:18;17.10;95.50
292;DHT22;23311;48.776;9.162;2023-09-19T04:27:47;17.20;95.50
292;DHT22;23311;48.776;9.162;2023-09-19T04:30:15;17.20;95.50
292;DHT22;23311;48.776;9.162;2023-09-19T04:32:44;17.10;95.50
292;DHT22;23311;48.776;9.162;2023-09-19T04:35:19;17.20;95.50
292;DHT22;23311;48.776;9.162;2023-09-19T04:37:47;17.20;95.50
292;DHT22;23311;48.776;9.162;2023-09-19T04:40:16;17.30;95.50
292;DHT22;23311;48.776;9.162;2023-09-19T04:42:53;17.20;95.50
292;DHT22;23311;48.776;9.162;2023-09-19T04:45:23;17.20;95.50
292;DHT22;23311;48.776;9.162;2023-09-19T04:47:52;17.20;95.50
292;DHT22;23311;48.776;9.162;2023-09-19T04:50:22;17.20;95.50
292;DHT22;23311;48.776;9.162;2023-09-19T04:52:51;17.20;95.50
292;DHT22;23311;48.776;9.162;2023-09-19T04:55:20;17.20;95.50
292;DHT22;23311;48.776;9.162;2023-09-19T04:57:49;17.10;95.50
292;DHT22;23311;48.776;9.162;2023-09-19T05:00:20;17.00;95.50
292;DHT22;23311;48.776;9.162;2023-09-19T05:02:51;16.80;95.50
292;DHT22;23311;48.776;9.162;2023-09-19T05:05:21;16.70;95.50
292;DHT22;23311;48.776;9.162;2023-09-19T05:07:51;16.50;95.50
292;DHT22;23311;48.776;9.162;2023-09-19T05:10:21;16.40;95.50
292;DHT22;23311;48.776;9.162;2023-09-19T05:12:53;16.40;95.50
292;DHT22;23311;48.776;9.162;2023-09-19T05:15:21;16.40;95.50
292;DHT22;23311;48.776;9.162;2023-09-19T05:17:50;16.40;95.50
292;DHT22;23311;48.776;9.162;2023-09-19T05:20:24;16.40;95.50
292;DHT22;23311;48.776;9.162;2023-09-19T05:23:00;16.40;95.50
292;DHT22;23311;48.776;9.162;2023-09-19T05:25:35;16.40;95.50
292;DHT22;23311;48.776;9.162;2023-09-19T05:28:06;16.30;95.50
292;DHT22;23311;48.776;9.162;2023-09-19T05:30:35;16.30;95.50
292;DHT22;23311;48.776;9.162;2023-09-19T05:33:09;16.30;95.50
292;DHT22;23311;48.776;9.162;2023-09-19T05:35:47;16.40;95.50
292;DHT22;23311;48.776;9.162;2023-09-19T05:38:15;16.40;95.50
292;DHT22;23311;48.776;9.162;2023-09-19T05:40:46;16.40;95.50
292;DHT22;23311;48.776;9.162;2023-09-19T05:43:14;16.40;95.50
292;DHT22;23311;48.776;9.162;2023-09-19T05:45:42;16.30;95.50
292;DHT22;23311;48.776;9.162;2023-09-19T05:48:12;16.30;95.50
292;DHT22;23311;48.776;9.162;2023-09-19T05:50:44;16.30;95.50
292;DHT22;23311;48.776;9.162;2023-09-19T05:53:14;16.10;95.50
292;DHT22;23311;48.776;9.162;2023-09-19T05:55:43;16.00;95.50
292;DHT22;23311;48.776;9.162;2023-09-19T05:58:11;15.90;95.50
292;DHT22;23311;48.776;9.162;2023-09-19T06:00:41;15.80;95.50
292;DHT22;23311;48.776;9.162;2023-09-19T06:03:11;15.90;95.50
292;DHT22;23311;48.776;9.162;2023-09-19T06:05:42;15.90;95.50
292;DHT22;23311;48.776;9.162;2023-09-19T06:08:10;15.90;95.50
292;DHT22;23311;48.776;9.162;2023-09-19T06:10:39;16.00;95.50
292;DHT22;23311;48.776;9.162;2023-09-19T06:13:07;16.10;95.50
292;DHT22;23311;48.776;9.162;2023-09-19T06:15:37;16.10;95.50
292;DHT22;23311;48.776;9.162;2023-09-19T06:18:10;16.00;95.50
292;DHT22;23311;48.776;9.162;2023-09-19T06:20:43;16.10;95.50
292;DHT22;23311;48.776;9.162;2023-09-19T06:23:12;15.90;95.50
292;DHT22;23311;48.776;9.162;2023-09-19T06:25:40;15.90;95.50
292;DHT22;23311;48.776;9.162;2023-09-19T06:28:10;15.90;95.50
292;DHT22;23311;48.776;9.162;2023-09-19T06:30:40;15.90;95.50
292;DHT22;23311;48.776;9.162;2023-09-19T06:33:08;16.00;95.50
292;DHT22;23311;48.776;9.162;2023-09-19T06:35:38;16.00;95.50
292;DHT22;23311;48.776;9.162;2023-09-19T06:38:10;15.90;95.50
292;DHT22;23311;48.776;9.162;2023-09-19T06:40:40;16.10;95.50
292;DHT22;23311;48.776;9.162;2023-09-19T06:43:10;16.20;95.50
292;DHT22;23311;48.776;9.162;2023-09-19T06:45:38;16.30;95.50
292;DHT22;23311;48.776;9.162;2023-09-19T06:48:06;16.30;95.50
292;DHT22;23311;48.776;9.162;2023-09-19T06:50:37;16.20;95.50
292;DHT22;23311;48.776;9.162;2023-09-19T06:53:05;16.30;95.50
292;DHT22;23311;48.776;9.162;2023-09-19T06:55:35;16.30;95.50
292;DHT22;23311;48.776;9.162;2023-09-19T06:58:03;16.60;95.50
292;DHT22;23311;48.776;9.162;2023-09-19T07:00:33;16.70;95.50
292;DHT22;23311;48.776;9.162;2023-09-19T07:03:05;16.80;95.50
292;DHT22;23311;48.776;9.162;2023-09-19T07:05:35;16.90;95.50
292;DHT22;23311;48.776;9.162;2023-09-19T07:08:07;17.10;95.50
292;DHT22;23311;48.776;9.162;2023-09-19T07:10:39;17.30;95.50
292;DHT22;23311;48.776;9.162;2023-09-19T07:13:09;17.40;95.50
292;DHT22;23311;48.776;9.162;2023-09-19T07:15:39;17.80;95.50
292;DHT22;23311;48.776;9.162;2023-09-19T07:18:13;18.10;95.50
292;DHT22;23311;48.776;9.162;2023-09-19T07:20:44;18.10;95.50
292;DHT22;23311;48.776;9.162;2023-09-19T07:23:16;18.20;95.50
292;DHT22;23311;48.776;9.162;2023-09-19T07:25:46;18.30;95.50
292;DHT22;23311;48.776;9.162;2023-09-19T07:28:16;18.30;95.50
292;DHT22;23311;48.776;9.162;2023-09-19T07:30:45;18.30;95.50
292;DHT22;23311;48.776;9.162;2023-09-19T07:33:13;18.40;95.50
292;DHT22;23311;48.776;9.162;2023-09-19T07:35:45;18.20;95.50
292;DHT22;23311;48.776;9.162;2023-09-19T07:38:14;18.10;95.50
292;DHT22;23311;48.776;9.162;2023-09-19T07:40:42;18.20;95.50
292;DHT22;23311;48.776;9.162;2023-09-19T07:43:10;19.00;95.50
292;DHT22;23311;48.776;9.162;2023-09-19T07:45:38;19.40;95.50
292;DHT22;23311;48.776;9.162;2023-09-19T07:48:07;20.00;95.50
292;DHT22;23311;48.776;9.162;2023-09-19T07:50:41;20.80;95.50
292;DHT22;23311;48.776;9.162;2023-09-19T07:53:10;20.80;95.50
292;DHT22;23311;48.776;9.162;2023-09-19T07:55:40;21.20;95.50
292;DHT22;23311;48.776;9.162;2023-09-19T07:58:10;21.50;95.50
292;DHT22;23311;48.776;9.162;2023-09-19T08:00:40;21.30;95.50
292;DHT22;23311;48.776;9.162;2023-09-19T08:03:08;21.00;95.50
292;DHT22;23311;48.776;9.162;2023-09-19T08:05:44;21.50;95.50
292;DHT22;23311;48.776;9.162;2023-09-19T08:08:13;21.60;95.50
292;DHT22;23311;48.776;9.162;2023-09-19T08:10:42;22.30;95.50
292;DHT22;23311;48.776;9.162;2023-09-19T08:13:14;22.90;95.50
292;DHT22;23311;48.776;9.162;2023-09-19T08:15:44;23.00;95.50
292;DHT22;23311;48.776;9.162;2023-09-19T08:18:13;23.50;95.50
292;DHT22;23311;48.776;9.162;2023-09-19T08:20:41;23.20;95.50
292;DHT22;23311;48.776;9.162;2023-09-19T08:23:13;24.00;95.50
292;DHT22;23311;48.776;9.162;2023-09-19T08:25:41;24.30;94.20
292;DHT22;23311;48.776;9.162;2023-09-19T08:28:09;21.90;95.50
292;DHT22;23311;48.776;9.162;2023-09-19T08:30:40;21.30;95.50
292;DHT22;23311;48.776;9.162;2023-09-19T08:33:08;22.10;95.50
292;DHT22;23311;48.776;9.162;2023-09-19T08:35:37;23.60;95.50
292;DHT22;23311;48.776;9.162;2023-09-19T08:38:08;24.00;95.00
292;DHT22;23311;48.776;9.162;2023-09-19T08:40:38;24.50;95.30
292;DHT22;23311;48.776;9.162;2023-09-19T08:43:08;24.80;93.00
292;DHT22;23311;48.776;9.162;2023-09-19T08:45:37;23.20;95.50
292;DHT22;23311;48.776;9.162;2023-09-19T08:48:17;23.80;95.50
292;DHT22;23311;48.776;9.162;2023-09-19T08:50:51;23.30;95.20
292;DHT22;23311;48.776;9.162;2023-09-19T08:53:26;22.90;95.50
292;DHT22;23311;48.776;9.162;2023-09-19T08:55:56;22.00;95.50
292;DHT22;23311;48.776;9.162;2023-09-19T08:58:28;23.10;95.50
292;DHT22;23311;48.776;9.162;2023-09-19T09:01:00;23.60;94.20
292;DHT22;23311;48.776;9.162;2023-09-19T09:03:33;23.90;93.40
292;DHT22;23311;48.776;9.162;2023-09-19T09:06:02;24.30;92.60
292;DHT22;23311;48.776;9.162;2023-09-19T09:08:31;24.30;91.70
292;DHT22;23311;48.776;9.162;2023-09-19T09:11:00;23.40;92.80
292;DHT22;23311;48.776;9.162;2023-09-19T09:13:29;23.90;92.10
292;DHT22;23311;48.776;9.162;2023-09-19T09:15:58;24.80;89.50
292;DHT22;23311;48.776;9.162;2023-09-19T09:18:26;24.40;89.60
292;DHT22;23311;48.776;9.162;2023-09-19T09:20:58;23.40;91.50
292;DHT22;23311;48.776;9.162;2023-09-19T09:23:27;22.10;92.90
292;DHT22;23311;48.776;9.162;2023-09-19T09:25:57;22.40;92.80
292;DHT22;23311;48.776;9.162;2023-09-19T09:28:31;23.40;89.60
292;DHT22;23311;48.776;9.162;2023-09-19T09:31:01;24.10;87.80
292;DHT22;23311;48.776;9.162;2023-09-19T09:33:35;24.00;86.60
292;DHT22;23311;48.776;9.162;2023-09-19T09:36:05;25.20;84.30
292;DHT22;23311;48.776;9.162;2023-09-19T09:38:44;22.90;86.20
292;DHT22;23311;48.776;9.162;2023-09-19T09:41:15;23.80;86.10
292;DHT22;23311;48.776;9.162;2023-09-19T09:43:54;24.80;84.00
292;DHT22;23311;48.776;9.162;2023-09-19T09:46:22;23.60;84.90
292;DHT22;23311;48.776;9.162;2023-09-19T09:49:10;23.00;86.60
292;DHT22;23311;48.776;9.162;2023-09-19T09:52:02;22.00;89.20
292;DHT22;23311;48.776;9.162;2023-09-19T09:54:37;22.20;89.30
292;DHT22;23311;48.776;9.162;2023-09-19T09:57:10;21.60;89.60
292;DHT22;23311;48.776;9.162;2023-09-19T09:59:46;21.70;90.70
292;DHT22;23311;48.776;9.162;2023-09-19T10:02:14;22.00;89.00
292;DHT22;23311;48.776;9.162;2023-09-19T10:04:53;21.80;88.30
292;DHT22;23311;48.776;9.162;2023-09-19T10:07:43;22.00;89.00
292;DHT22;23311;48.776;9.162;2023-09-19T10:10:30;22.70;87.60
292;DHT22;23311;48.776;9.162;2023-09-19T10:13:06;22.10;89.20
292;DHT22;23311;48.776;9.162;2023-09-19T10:15:39;22.70;87.80
292;DHT22;23311;48.776;9.162;2023-09-19T10:18:11;21.70;88.90
292;DHT22;23311;48.776;9.162;2023-09-19T10:20:45;21.80;88.70
292;DHT22;23311;48.776;9.162;2023-09-19T10:23:18;21.30;88.70
292;DHT22;23311;48.776;9.162;2023-09-19T10:25:50;21.10;89.10
292;DHT22;23311;48.776;9.162;2023-09-19T10:28:20;21.00;89.60
292;DHT22;23311;48.776;9.162;2023-09-19T10:30:51;20.90;90.10
292;DHT22;23311;48.776;9.162;2023-09-19T10:33:21;21.10;90.70
292;DHT22;23311;48.776;9.162;2023-09-19T10:35:50;22.40;87.70
292;DHT22;23311;48.776;9.162;2023-09-19T10:38:24;23.10;86.50
292;DHT22;23311;48.776;9.162;2023-09-19T10:40:54;22.80;86.20
292;DHT22;23311;48.776;9.162;2023-09-19T10:43:26;22.10;87.80
292;DHT22;23311;48.776;9.162;2023-09-19T10:46:02;22.50;87.20
292;DHT22;23311;48.776;9.162;2023-09-19T10:48:33;21.80;88.70
292;DHT22;23311;48.776;9.162;2023-09-19T10:51:05;22.20;88.30
292;DHT22;23311;48.776;9.162;2023-09-19T10:53:45;21.30;89.10
292;DHT22;23311;48.776;9.162;2023-09-19T10:56:19;22.00;88.40
292;DHT22;23311;48.776;9.162;2023-09-19T10:58:49;22.00;87.40
292;DHT22;23311;48.776;9.162;2023-09-19T11:01:18;22.30;86.90
292;DHT22;23311;48.776;9.162;2023-09-19T11:03:47;23.10;85.20
292;DHT22;23311;48.776;9.162;2023-09-19T11:06:20;23.30;84.50
292;DHT22;23311;48.776;9.162;2023-09-19T11:08:58;21.80;87.00
292;DHT22;23311;48.776;9.162;2023-09-19T11:11:50;21.00;90.00
292;DHT22;23311;48.776;9.162;2023-09-19T11:14:30;21.10;90.10
292;DHT22;23311;48.776;9.162;2023-09-19T11:20:23;21.60;89.40
292;DHT22;23311;48.776;9.162;2023-09-19T11:23:20;21.60;88.10
292;DHT22;23311;48.776;9.162;2023-09-19T11:25:55;21.80;87.70
292;DHT22;23311;48.776;9.162;2023-09-19T11:28:33;22.50;86.60
292;DHT22;23311;48.776;9.162;2023-09-19T11:34:42;22.80;84.00
292;DHT22;23311;48.776;9.162;2023-09-19T11:40:29;23.90;79.20
292;DHT22;23311;48.776;9.162;2023-09-19T11:43:30;23.80;79.90
292;DHT22;23311;48.776;9.162;2023-09-19T11:46:09;24.00;78.90
292;DHT22;23311;48.776;9.162;2023-09-19T11:48:41;24.50;78.40
292;DHT22;23311;48.776;9.162;2023-09-19T11:51:12;24.90;77.60
292;DHT22;23311;48.776;9.162;2023-09-19T11:53:46;24.90;77.00
292;DHT22;23311;48.776;9.162;2023-09-19T11:56:17;24.70;77.20
292;DHT22;23311;48.776;9.162;2023-09-19T11:58:51;24.90;77.90
292;DHT22;23311;48.776;9.162;2023-09-19T12:01:24;25.10;77.30
292;DHT22;23311;48.776;9.162;2023-09-19T12:03:57;24.40;77.80
292;DHT22;23311;48.776;9.162;2023-09-19T12:06:27;24.10;78.70
292;DHT22;23311;48.776;9.162;2023-09-19T12:08:56;24.50;76.80
292;DHT22;23311;48.776;9.162;2023-09-19T12:11:29;24.10;78.30
292;DHT22;23311;48.776;9.162;2023-09-19T12:14:02;24.20;78.90
292;DHT22;23311;48.776;9.162;2023-09-19T12:16:31;24.40;78.80
292;DHT22;23311;48.776;9.162;2023-09-19T12:19:19;25.00;78.20
292;DHT22;23311;48.776;9.162;2023-09-19T12:21:59;25.80;76.30
292;DHT22;23311;48.776;9.162;2023-09-19T12:24:31;25.80;76.20
292;DHT22;23311;48.776;9.162;2023-09-19T12:27:03;25.10;76.70
292;DHT22;23311;48.776;9.162;2023-09-19T12:29:44;25.00;77.40
292;DHT22;23311;48.776;9.162;2023-09-19T12:32:12;23.20;80.90
292;DHT22;23311;48.776;9.162;2023-09-19T12:34:50;23.30;81.80
292;DHT22;23311;48.776;9.162;2023-09-19T12:37:20;24.00;79.90
292;DHT22;23311;48.776;9.162;2023-09-19T12:39:50;25.00;78.00
292;DHT22;23311;48.776;9.162;2023-09-19T12:42:23;26.00;76.70
292;DHT22;23311;48.776;9.162;2023-09-19T12:44:57;26.20;75.70
292;DHT22;23311;48.776;9.162;2023-09-19T12:47:28;26.20;75.40
292;DHT22;23311;48.776;9.162;2023-09-19T12:50:07;26.20;75.80
292;DHT22;23311;48.776;9.162;2023-09-19T12:52:42;26.40;74.70
292;DHT22;23311;48.776;9.162;2023-09-19T12:55:22;26.10;73.70
292;DHT22;23311;48.776;9.162;2023-09-19T12:57:58;25.20;76.90
292;DHT22;23311;48.776;9.162;2023-09-19T13:00:35;25.50;75.70
292;DHT22;23311;48.776;9.162;2023-09-19T13:03:17;24.20;78.00
292;DHT22;23311;48.776;9.162;2023-09-19T13:05:53;24.80;78.50
292;DHT22;23311;48.776;9.162;2023-09-19T13:08:26;24.90;78.10
292;DHT22;23311;48.776;9.162;2023-09-19T13:11:09;25.60;76.80
292;DHT22;23311;48.776;9.162;2023-09-19T13:13:44;25.50;76.30
292;DHT22;23311;48.776;9.162;2023-09-19T13:16:18;23.90;77.80
292;DHT22;23311;48.776;9.162;2023-09-19T13:18:50;23.60;80.20
292;DHT22;23311;48.776;9.162;2023-09-19T13:21:27;23.70;80.50
292;DHT22;23311;48.776;9.162;2023-09-19T13:24:01;23.90;79.40
292;DHT22;23311;48.776;9.162;2023-09-19T13:26:44;24.00;79.30
292;DHT22;23311;48.776;9.162;2023-09-19T13:29:12;24.20;79.60
292;DHT22;23311;48.776;9.162;2023-09-19T13:31:47;25.70;77.10
292;DHT22;23311;48.776;9.162;2023-09-19T13:34:15;26.30;75.20
292;DHT22;23311;48.776;9.162;2023-09-19T13:36:44;26.50;74.10
292;DHT22;23311;48.776;9.162;2023-09-19T13:39:15;25.70;75.10
292;DHT22;23311;48.776;9.162;2023-09-19T13:41:44;25.20;77.60
292;DHT22;23311;48.776;9.162;2023-09-19T13:44:13;25.00;78.60
292;DHT22;23311;48.776;9.162;2023-09-19T13:46:43;25.10;79.10
292;DHT22;23311;48.776;9.162;2023-09-19T13:49:15;25.20;78.50
292;DHT22;23311;48.776;9.162;2023-09-19T13:51:47;24.60;78.90
292;DHT22;23311;48.776;9.162;2023-09-19T13:54:15;23.60;80.90
292;DHT22;23311;48.776;9.162;2023-09-19T13:56:43;23.70;80.10
292;DHT22;23311;48.776;9.162;2023-09-19T13:59:11;23.70;79.70
292;DHT22;23311;48.776;9.162;2023-09-19T14:01:39;23.90;79.40
292;DHT22;23311;48.776;9.162;2023-09-19T14:04:08;23.50;80.30
292;DHT22;23311;48.776;9.162;2023-09-19T14:06:42;23.70;80.70
292;DHT22;23311;48.776;9.162;2023-09-19T14:09:12;23.90;79.60
292;DHT22;23311;48.776;9.162;2023-09-19T14:11:40;23.70;79.10
292;DHT22;23311;48.776;9.162;2023-09-19T14:14:09;23.60;79.40
292;DHT22;23311;48.776;9.162;2023-09-19T14:16:37;23.70;79.90
292;DHT22;23311;48.776;9.162;2023-09-19T14:19:07;23.20;80.80
292;DHT22;23311;48.776;9.162;2023-09-19T14:21:36;23.40;80.90
292;DHT22;23311;48.776;9.162;2023-09-19T14:24:07;23.60;80.10
292;DHT22;23311;48.776;9.162;2023-09-19T14:26:36;23.80;79.70
292;DHT22;23311;48.776;9.162;2023-09-19T14:29:05;23.60;80.00
292;DHT22;23311;48.776;9.162;2023-09-19T14:31:37;23.90;79.00
292;DHT22;23311;48.776;9.162;2023-09-19T14:34:07;23.80;78.30
292;DHT22;23311;48.776;9.162;2023-09-19T14:36:37;23.70;79.00
292;DHT22;23311;48.776;9.162;2023-09-19T14:39:07;23.50;79.90
292;DHT22;23311;48.776;9.162;2023-09-19T14:41:36;23.50;80.30
292;DHT22;23311;48.776;9.162;2023-09-19T14:44:04;23.70;78.60
292;DHT22;23311;48.776;9.162;2023-09-19T14:46:32;23.60;78.40
292;DHT22;23311;48.776;9.162;2023-09-19T14:49:01;23.60;77.90
292;DHT22;23311;48.776;9.162;2023-09-19T14:51:31;23.20;79.00
292;DHT22;23311;48.776;9.162;2023-09-19T14:53:59;23.40;78.90
292;DHT22;23311;48.776;9.162;2023-09-19T14:56:30;23.60;78.40
292;DHT22;23311;48.776;9.162;2023-09-19T14:58:59;23.50;78.50
292;DHT22;23311;48.776;9.162;2023-09-19T15:01:28;23.30;79.10
292;DHT22;23311;48.776;9.162;2023-09-19T15:03:56;23.30;79.30
292;DHT22;23311;48.776;9.162;2023-09-19T15:06:24;23.30;79.60
292;DHT22;23311;48.776;9.162;2023-09-19T15:08:53;23.30;79.70
292;DHT22;23311;48.776;9.162;2023-09-19T15:11:21;23.10;79.40
292;DHT22;23311;48.776;9.162;2023-09-19T15:13:52;23.00;79.80
292;DHT22;23311;48.776;9.162;2023-09-19T15:16:21;23.10;79.70
292;DHT22;23311;48.776;9.162;2023-09-19T15:18:49;23.00;79.30
292;DHT22;23311;48.776;9.162;2023-09-19T15:21:19;23.10;79.60
292;DHT22;23311;48.776;9.162;2023-09-19T15:23:47;23.20;79.80
292;DHT22;23311;48.776;9.162;2023-09-19T15:26:15;23.30;80.00
292;DHT22;23311;48.776;9.162;2023-09-19T15:28:47;23.20;79.30
292;DHT22;23311;48.776;9.162;2023-09-19T15:31:18;23.00;79.00
292;DHT22;23311;48.776;9.162;2023-09-19T15:33:46;22.90;79.60
292;DHT22;23311;48.776;9.162;2023-09-19T15:36:15;22.90;79.80
292;DHT22;23311;48.776;9.162;2023-09-19T15:38:56;22.90;79.70
292;DHT22;23311;48.776;9.162;2023-09-19T15:41:25;22.90;79.70
292;DHT22;23311;48.776;9.162;2023-09-19T15:43:53;22.80;80.00
292;DHT22;23311;48.776;9.162;2023-09-19T15:46:23;22.70;80.40
292;DHT22;23311;48.776;9.162;2023-09-19T15:48:53;22.60;80.60
292;DHT22;23311;48.776;9.162;2023-09-19T15:51:21;22.70;80.90
292;DHT22;23311;48.776;9.162;2023-09-19T15:53:50;22.90;80.80
292;DHT22;23311;48.776;9.162;2023-09-19T15:56:21;23.00;80.90
292;DHT22;23311;48.776;9.162;2023-09-19T15:58:50;23.40;80.50
292;DHT22;23311;48.776;9.162;2023-09-19T16:01:19;23.90;79.30
292;DHT22;23311;48.776;9.162;2023-09-19T16:03:50;24.20;78.80
292;DHT22;23311;48.776;9.162;2023-09-19T16:06:21;24.10;78.50
292;DHT22;23311;48.776;9.162;2023-09-19T16:08:51;23.80;79.20
292;DHT22;23311;48.776;9.162;2023-09-19T16:11:20;24.10;78.90
292;DHT22;23311;48.776;9.162;2023-09-19T16:13:50;24.00;78.30
292;DHT22;23311;48.776;9.162;2023-09-19T16:16:20;24.00;78.50
292;DHT22;23311;48.776;9.162;2023-09-19T16:18:52;23.80;78.60
292;DHT22;23311;48.776;9.162;2023-09-19T16:21:24;23.30;79.80
292;DHT22;23311;48.776;9.162;2023-09-19T16:23:54;23.00;80.50
292;DHT22;23311;48.776;9.162;2023-09-19T16:26:23;22.90;81.10
292;DHT22;23311;48.776;9.162;2023-09-19T16:28:53;22.60;81.50
292;DHT22;23311;48.776;9.162;2023-09-19T16:31:23;22.70;81.90
292;DHT22;23311;48.776;9.162;2023-09-19T16:33:53;22.70;81.60
292;DHT22;23311;48.776;9.162;2023-09-19T16:36:22;22.70;81.80
292;DHT22;23311;48.776;9.162;2023-09-19T16:38:51;22.60;82.10